sensor_id;sensor_type;location;lat;lon;timestamp;temperature;humidity
49861;DHT22;35761;48.826;9.238;2022-08-03T00:00:34;24.20;31.20
49861;DHT22;35761;48.826;9.238;2022-08-03T00:03:03;24.20;31.60
49861;DHT22;35761;48.826;9.238;2022-08-03T00:05:33;24.30;31.80
49861;DHT22;35761;48.826;9.238;2022-08-03T00:08:01;24.20;32.10
49861;DHT22;35761;48.826;9.238;2022-08-03T00:10:32;24.10;32.50
49861;DHT22;35761;48.826;9.238;2022-08-03T00:13:01;24.10;33.00
49861;DHT22;35761;48.826;9.238;2022-08-03T00:15:29;24.00;33.60
49861;DHT22;35761;48.826;9.238;2022-08-03T00:17:58;24.00;33.70
49861;DHT22;35761;48.826;9.238;2022-08-03T00:20:26;24.00;33.90
49861;DHT22;35761;48.826;9.238;2022-08-03T00:22:56;23.90;34.50
49861;DHT22;35761;48.826;9.238;2022-08-03T00:25:24;23.90;35.00
49861;DHT22;35761;48.826;9.238;2022-08-03T00:27:53;23.80;35.20
49861;DHT22;35761;48.826;9.238;2022-08-03T00:30:21;23.70;35.50
49861;DHT22;35761;48.826;9.238;2022-08-03T00:32:57;23.70;35.80
49861;DHT22;35761;48.826;9.238;2022-08-03T00:35:26;23.70;35.60
49861;DHT22;35761;48.826;9.238;2022-08-03T00:38:16;23.80;35.60
49861;DHT22;35761;48.826;9.238;2022-08-03T00:40:44;23.60;36.00
49861;DHT22;35761;48.826;9.238;2022-08-03T00:43:13;23.60;36.20
49861;DHT22;35761;48.826;9.238;2022-08-03T00:45:42;23.50;36.40
49861;DHT22;35761;48.826;9.238;2022-08-03T00:48:11;23.40;37.30
49861;DHT22;35761;48.826;9.238;2022-08-03T00:50:59;23.30;37.70
49861;DHT22;35761;48.826;9.238;2022-08-03T00:53:30;23.20;37.40
49861;DHT22;35761;48.826;9.238;2022-08-03T00:55:59;23.20;37.30
49861;DHT22;35761;48.826;9.238;2022-08-03T00:58:28;23.10;36.50
49861;DHT22;35761;48.826;9.238;2022-08-03T01:00:56;23.20;36.10
49861;DHT22;35761;48.826;9.238;2022-08-03T01:03:25;23.10;36.10
49861;DHT22;35761;48.826;9.238;2022-08-03T01:05:59;23.00;36.10
49861;DHT22;35761;48.826;9.238;2022-08-03T01:08:38;23.00;35.90
49861;DHT22;35761;48.826;9.238;2022-08-03T01:11:16;23.00;35.90
49861;DHT22;35761;48.826;9.238;2022-08-03T01:13:55;22.90;36.00
49861;DHT22;35761;48.826;9.238;2022-08-03T01:16:53;22.90;36.10
49861;DHT22;35761;48.826;9.238;2022-08-03T01:19:37;22.90;36.50
49861;DHT22;35761;48.826;9.238;2022-08-03T01:22:14;22.90;36.90
49861;DHT22;35761;48.826;9.238;2022-08-03T01:24:57;22.90;36.90
49861;DHT22;35761;48.826;9.238;2022-08-03T01:27:42;22.90;37.40
49861;DHT22;35761;48.826;9.238;2022-08-03T01:30:22;22.90;37.20
49861;DHT22;35761;48.826;9.238;2022-08-03T01:32:56;22.90;37.30
49861;DHT22;35761;48.826;9.238;2022-08-03T01:35:32;22.80;37.60
49861;DHT22;35761;48.826;9.238;2022-08-03T01:38:09;22.70;38.00
49861;DHT22;35761;48.826;9.238;2022-08-03T01:40:40;22.60;38.00
49861;DHT22;35761;48.826;9.238;2022-08-03T01:43:13;22.60;38.00
49861;DHT22;35761;48.826;9.238;2022-08-03T01:46:06;22.50;36.60
49861;DHT22;35761;48.826;9.238;2022-08-03T01:48:35;22.50;36.80
49861;DHT22;35761;48.826;9.238;2022-08-03T01:51:05;22.40;36.60
49861;DHT22;35761;48.826;9.238;2022-08-03T01:53:36;22.30;36.50
49861;DHT22;35761;48.826;9.238;2022-08-03T01:56:06;22.30;36.50
49861;DHT22;35761;48.826;9.238;2022-08-03T01:58:36;22.30;37.40
49861;DHT22;35761;48.826;9.238;2022-08-03T02:01:08;22.30;36.90
49861;DHT22;35761;48.826;9.238;2022-08-03T02:03:39;22.20;36.70
49861;DHT22;35761;48.826;9.238;2022-08-03T02:06:27;22.20;37.00
49861;DHT22;35761;48.826;9.238;2022-08-03T02:09:19;22.10;37.10
49861;DHT22;35761;48.826;9.238;2022-08-03T02:11:50;22.00;37.10
49861;DHT22;35761;48.826;9.238;2022-08-03T02:14:20;22.00;37.30
49861;DHT22;35761;48.826;9.238;2022-08-03T02:16:51;22.00;37.10
49861;DHT22;35761;48.826;9.238;2022-08-03T02:19:20;22.00;37.00
49861;DHT22;35761;48.826;9.238;2022-08-03T02:21:50;21.90;37.50
49861;DHT22;35761;48.826;9.238;2022-08-03T02:24:27;21.80;37.60
49861;DHT22;35761;48.826;9.238;2022-08-03T02:26:56;21.80;37.90
49861;DHT22;35761;48.826;9.238;2022-08-03T02:29:29;21.80;37.70
49861;DHT22;35761;48.826;9.238;2022-08-03T02:32:09;21.70;38.10
49861;DHT22;35761;48.826;9.238;2022-08-03T02:34:45;21.70;38.40
49861;DHT22;35761;48.826;9.238;2022-08-03T02:37:17;21.70;38.60
49861;DHT22;35761;48.826;9.238;2022-08-03T02:39:48;21.60;38.30
49861;DHT22;35761;48.826;9.238;2022-08-03T02:42:20;21.60;38.20
49861;DHT22;35761;48.826;9.238;2022-08-03T02:44:52;21.50;38.50
49861;DHT22;35761;48.826;9.238;2022-08-03T02:47:26;21.50;38.20
49861;DHT22;35761;48.826;9.238;2022-08-03T02:50:16;21.50;39.10
49861;DHT22;35761;48.826;9.238;2022-08-03T02:52:45;21.40;40.60
49861;DHT22;35761;48.826;9.238;2022-08-03T02:55:15;21.40;41.10
49861;DHT22;35761;48.826;9.238;2022-08-03T02:57:45;21.30;42.10
49861;DHT22;35761;48.826;9.238;2022-08-03T03:00:14;21.20;42.80
49861;DHT22;35761;48.826;9.238;2022-08-03T03:02:56;21.10;43.20
49861;DHT22;35761;48.826;9.238;2022-08-03T03:05:27;21.10;43.40
49861;DHT22;35761;48.826;9.238;2022-08-03T03:08:17;21.00;43.60
49861;DHT22;35761;48.826;9.238;2022-08-03T03:10:58;21.10;43.60
49861;DHT22;35761;48.826;9.238;2022-08-03T03:13:28;21.00;44.00
49861;DHT22;35761;48.826;9.238;2022-08-03T03:15:59;21.00;43.90
49861;DHT22;35761;48.826;9.238;2022-08-03T03:18:32;21.00;44.00
49861;DHT22;35761;48.826;9.238;2022-08-03T03:21:03;21.00;44.20
49861;DHT22;35761;48.826;9.238;2022-08-03T03:23:35;21.00;44.40
49861;DHT22;35761;48.826;9.238;2022-08-03T03:26:05;21.00;44.50
49861;DHT22;35761;48.826;9.238;2022-08-03T03:28:35;21.00;44.80
49861;DHT22;35761;48.826;9.238;2022-08-03T03:31:04;21.00;44.50
49861;DHT22;35761;48.826;9.238;2022-08-03T03:33:35;21.00;44.40
49861;DHT22;35761;48.826;9.238;2022-08-03T03:36:05;20.90;44.70
49861;DHT22;35761;48.826;9.238;2022-08-03T03:38:34;20.90;45.10
49861;DHT22;35761;48.826;9.238;2022-08-03T03:41:03;20.90;45.60
49861;DHT22;35761;48.826;9.238;2022-08-03T03:43:32;20.80;45.60
49861;DHT22;35761;48.826;9.238;2022-08-03T03:46:01;20.80;45.70
49861;DHT22;35761;48.826;9.238;2022-08-03T03:48:29;20.80;46.20
49861;DHT22;35761;48.826;9.238;2022-08-03T03:50:59;20.80;46.00
49861;DHT22;35761;48.826;9.238;2022-08-03T03:53:28;20.80;46.00
49861;DHT22;35761;48.826;9.238;2022-08-03T03:55:57;20.70;46.10
49861;DHT22;35761;48.826;9.238;2022-08-03T03:58:30;20.70;46.50
49861;DHT22;35761;48.826;9.238;2022-08-03T04:00:59;20.70;46.10
49861;DHT22;35761;48.826;9.238;2022-08-03T04:03:28;20.70;46.60
49861;DHT22;35761;48.826;9.238;2022-08-03T04:05:58;20.70;46.60
49861;DHT22;35761;48.826;9.238;2022-08-03T04:08:44;20.70;46.20
49861;DHT22;35761;48.826;9.238;2022-08-03T04:11:33;20.80;46.00
49861;DHT22;35761;48.826;9.238;2022-08-03T04:14:08;20.60;46.20
49861;DHT22;35761;48.826;9.238;2022-08-03T04:16:42;20.60;45.90
49861;DHT22;35761;48.826;9.238;2022-08-03T04:19:16;20.50;45.10
49861;DHT22;35761;48.826;9.238;2022-08-03T04:21:53;20.50;45.50
49861;DHT22;35761;48.826;9.238;2022-08-03T04:24:25;20.50;45.90
49861;DHT22;35761;48.826;9.238;2022-08-03T04:26:57;20.50;46.50
49861;DHT22;35761;48.826;9.238;2022-08-03T04:29:28;20.40;47.00
49861;DHT22;35761;48.826;9.238;2022-08-03T04:31:59;20.40;47.20
49861;DHT22;35761;48.826;9.238;2022-08-03T04:34:29;20.40;47.30
49861;DHT22;35761;48.826;9.238;2022-08-03T04:37:02;20.40;47.10
49861;DHT22;35761;48.826;9.238;2022-08-03T04:39:34;20.40;47.30
49861;DHT22;35761;48.826;9.238;2022-08-03T04:42:06;20.40;47.50
49861;DHT22;35761;48.826;9.238;2022-08-03T04:44:38;20.40;47.10
49861;DHT22;35761;48.826;9.238;2022-08-03T04:47:08;20.40;47.50
49861;DHT22;35761;48.826;9.238;2022-08-03T04:49:37;20.40;46.90
49861;DHT22;35761;48.826;9.238;2022-08-03T04:52:07;20.40;46.90
49861;DHT22;35761;48.826;9.238;2022-08-03T04:54:40;20.40;46.80
49861;DHT22;35761;48.826;9.238;2022-08-03T04:57:16;20.40;46.70
49861;DHT22;35761;48.826;9.238;2022-08-03T04:59:50;20.40;46.70
49861;DHT22;35761;48.826;9.238;2022-08-03T05:02:30;20.40;46.80
49861;DHT22;35761;48.826;9.238;2022-08-03T05:04:59;20.30;47.10
49861;DHT22;35761;48.826;9.238;2022-08-03T05:07:29;20.20;47.20
49861;DHT22;35761;48.826;9.238;2022-08-03T05:10:04;20.30;47.50
49861;DHT22;35761;48.826;9.238;2022-08-03T05:12:41;20.20;47.60
49861;DHT22;35761;48.826;9.238;2022-08-03T05:15:10;20.10;47.90
49861;DHT22;35761;48.826;9.238;2022-08-03T05:17:39;20.10;48.20
49861;DHT22;35761;48.826;9.238;2022-08-03T05:20:09;20.10;48.20
49861;DHT22;35761;48.826;9.238;2022-08-03T05:22:39;20.10;48.40
49861;DHT22;35761;48.826;9.238;2022-08-03T05:25:08;20.10;48.40
49861;DHT22;35761;48.826;9.238;2022-08-03T05:27:45;20.10;48.90
49861;DHT22;35761;48.826;9.238;2022-08-03T05:30:15;20.10;49.10
49861;DHT22;35761;48.826;9.238;2022-08-03T05:33:00;20.20;49.40
49861;DHT22;35761;48.826;9.238;2022-08-03T05:35:30;20.30;48.90
49861;DHT22;35761;48.826;9.238;2022-08-03T05:38:20;20.30;48.50
49861;DHT22;35761;48.826;9.238;2022-08-03T05:40:55;20.30;48.60
49861;DHT22;35761;48.826;9.238;2022-08-03T05:43:44;20.40;48.00
49861;DHT22;35761;48.826;9.238;2022-08-03T05:46:12;20.40;47.50
49861;DHT22;35761;48.826;9.238;2022-08-03T05:48:42;20.40;47.90
49861;DHT22;35761;48.826;9.238;2022-08-03T05:51:10;20.40;47.80
49861;DHT22;35761;48.826;9.238;2022-08-03T05:53:41;20.40;48.20
49861;DHT22;35761;48.826;9.238;2022-08-03T05:56:10;20.50;48.10
49861;DHT22;35761;48.826;9.238;2022-08-03T05:58:44;20.50;47.60
49861;DHT22;35761;48.826;9.238;2022-08-03T06:01:13;20.60;47.50
49861;DHT22;35761;48.826;9.238;2022-08-03T06:03:42;20.60;46.90
49861;DHT22;35761;48.826;9.238;2022-08-03T06:06:11;20.60;47.00
49861;DHT22;35761;48.826;9.238;2022-08-03T06:08:41;20.60;46.80
49861;DHT22;35761;48.826;9.238;2022-08-03T06:11:11;20.70;47.10
49861;DHT22;35761;48.826;9.238;2022-08-03T06:13:40;20.70;46.60
49861;DHT22;35761;48.826;9.238;2022-08-03T06:16:08;20.80;46.60
49861;DHT22;35761;48.826;9.238;2022-08-03T06:18:37;20.80;46.10
49861;DHT22;35761;48.826;9.238;2022-08-03T06:21:07;20.80;46.40
49861;DHT22;35761;48.826;9.238;2022-08-03T06:23:44;20.80;46.30
49861;DHT22;35761;48.826;9.238;2022-08-03T06:26:23;20.80;46.40
49861;DHT22;35761;48.826;9.238;2022-08-03T06:28:51;20.80;46.30
49861;DHT22;35761;48.826;9.238;2022-08-03T06:31:22;20.80;46.90
49861;DHT22;35761;48.826;9.238;2022-08-03T06:34:01;20.80;46.70
49861;DHT22;35761;48.826;9.238;2022-08-03T06:36:50;20.90;46.90
49861;DHT22;35761;48.826;9.238;2022-08-03T06:39:28;20.90;47.20
49861;DHT22;35761;48.826;9.238;2022-08-03T06:41:57;21.00;45.80
49861;DHT22;35761;48.826;9.238;2022-08-03T06:44:25;21.10;45.90
49861;DHT22;35761;48.826;9.238;2022-08-03T06:46:54;21.10;45.90
49861;DHT22;35761;48.826;9.238;2022-08-03T06:49:22;21.10;44.80
49861;DHT22;35761;48.826;9.238;2022-08-03T06:51:51;21.20;44.70
49861;DHT22;35761;48.826;9.238;2022-08-03T06:54:34;21.20;45.30
49861;DHT22;35761;48.826;9.238;2022-08-03T06:57:04;21.20;45.10
49861;DHT22;35761;48.826;9.238;2022-08-03T06:59:34;21.30;44.30
49861;DHT22;35761;48.826;9.238;2022-08-03T07:02:22;21.40;42.60
49861;DHT22;35761;48.826;9.238;2022-08-03T07:04:54;21.40;43.00
49861;DHT22;35761;48.826;9.238;2022-08-03T07:07:23;21.40;43.90
49861;DHT22;35761;48.826;9.238;2022-08-03T07:09:53;21.40;43.30
49861;DHT22;35761;48.826;9.238;2022-08-03T07:12:27;21.50;42.20
49861;DHT22;35761;48.826;9.238;2022-08-03T07:14:58;21.60;42.20
49861;DHT22;35761;48.826;9.238;2022-08-03T07:17:31;21.60;42.70
49861;DHT22;35761;48.826;9.238;2022-08-03T07:20:02;21.80;41.00
49861;DHT22;35761;48.826;9.238;2022-08-03T07:22:33;21.70;41.20
49861;DHT22;35761;48.826;9.238;2022-08-03T07:25:04;21.80;40.40
49861;DHT22;35761;48.826;9.238;2022-08-03T07:27:33;22.00;40.90
49861;DHT22;35761;48.826;9.238;2022-08-03T07:30:03;22.00;41.30
49861;DHT22;35761;48.826;9.238;2022-08-03T07:32:33;22.00;42.00
49861;DHT22;35761;48.826;9.238;2022-08-03T07:35:16;21.90;42.40
49861;DHT22;35761;48.826;9.238;2022-08-03T07:37:51;22.10;40.80
49861;DHT22;35761;48.826;9.238;2022-08-03T07:40:22;22.10;40.90
49861;DHT22;35761;48.826;9.238;2022-08-03T07:42:57;22.20;41.10
49861;DHT22;35761;48.826;9.238;2022-08-03T07:45:26;22.20;40.80
49861;DHT22;35761;48.826;9.238;2022-08-03T07:47:54;22.30;40.80
49861;DHT22;35761;48.826;9.238;2022-08-03T07:50:23;22.30;40.30
49861;DHT22;35761;48.826;9.238;2022-08-03T07:52:52;22.40;40.20
49861;DHT22;35761;48.826;9.238;2022-08-03T07:55:24;22.50;40.10
49861;DHT22;35761;48.826;9.238;2022-08-03T07:58:04;22.60;39.30
49861;DHT22;35761;48.826;9.238;2022-08-03T08:00:35;22.70;39.50
49861;DHT22;35761;48.826;9.238;2022-08-03T08:03:04;22.80;39.70
49861;DHT22;35761;48.826;9.238;2022-08-03T08:05:32;22.80;39.60
49861;DHT22;35761;48.826;9.238;2022-08-03T08:08:01;23.00;38.80
49861;DHT22;35761;48.826;9.238;2022-08-03T08:10:31;23.00;40.10
49861;DHT22;35761;48.826;9.238;2022-08-03T08:13:00;23.10;38.70
49861;DHT22;35761;48.826;9.238;2022-08-03T08:15:30;23.10;39.00
49861;DHT22;35761;48.826;9.238;2022-08-03T08:21:11;23.30;37.20
49861;DHT22;35761;48.826;9.238;2022-08-03T08:23:40;23.50;36.70
49861;DHT22;35761;48.826;9.238;2022-08-03T08:26:20;23.70;36.60
49861;DHT22;35761;48.826;9.238;2022-08-03T08:28:49;23.60;37.20
49861;DHT22;35761;48.826;9.238;2022-08-03T08:31:18;23.60;36.20
49861;DHT22;35761;48.826;9.238;2022-08-03T08:33:47;23.70;34.40
49861;DHT22;35761;48.826;9.238;2022-08-03T08:36:31;23.80;33.90
49861;DHT22;35761;48.826;9.238;2022-08-03T08:39:00;23.90;33.40
49861;DHT22;35761;48.826;9.238;2022-08-03T08:41:30;23.90;34.40
49861;DHT22;35761;48.826;9.238;2022-08-03T08:44:00;24.00;33.30
49861;DHT22;35761;48.826;9.238;2022-08-03T08:46:31;24.20;33.40
49861;DHT22;35761;48.826;9.238;2022-08-03T08:49:00;24.20;34.10
49861;DHT22;35761;48.826;9.238;2022-08-03T08:51:33;24.40;32.70
49861;DHT22;35761;48.826;9.238;2022-08-03T08:54:24;24.50;32.70
49861;DHT22;35761;48.826;9.238;2022-08-03T08:56:56;24.50;32.70
49861;DHT22;35761;48.826;9.238;2022-08-03T08:59:26;24.70;31.80
49861;DHT22;35761;48.826;9.238;2022-08-03T09:02:14;24.70;31.20
49861;DHT22;35761;48.826;9.238;2022-08-03T09:04:43;24.70;31.30
49861;DHT22;35761;48.826;9.238;2022-08-03T09:07:15;24.70;30.90
49861;DHT22;35761;48.826;9.238;2022-08-03T09:09:46;24.80;30.50
49861;DHT22;35761;48.826;9.238;2022-08-03T09:12:41;24.80;31.50
49861;DHT22;35761;48.826;9.238;2022-08-03T09:15:23;24.80;31.80
49861;DHT22;35761;48.826;9.238;2022-08-03T09:17:54;24.80;33.10
49861;DHT22;35761;48.826;9.238;2022-08-03T09:20:26;24.80;32.10
49861;DHT22;35761;48.826;9.238;2022-08-03T09:22:58;24.90;31.50
49861;DHT22;35761;48.826;9.238;2022-08-03T09:25:29;25.00;29.90
49861;DHT22;35761;48.826;9.238;2022-08-03T09:28:08;25.10;29.90
49861;DHT22;35761;48.826;9.238;2022-08-03T09:30:40;25.30;29.50
49861;DHT22;35761;48.826;9.238;2022-08-03T09:33:10;25.30;30.70
49861;DHT22;35761;48.826;9.238;2022-08-03T09:35:41;25.40;30.10
49861;DHT22;35761;48.826;9.238;2022-08-03T09:38:21;25.40;31.00
49861;DHT22;35761;48.826;9.238;2022-08-03T09:40:52;25.30;31.40
49861;DHT22;35761;48.826;9.238;2022-08-03T09:43:27;25.30;31.00
49861;DHT22;35761;48.826;9.238;2022-08-03T09:46:03;25.40;30.70
49861;DHT22;35761;48.826;9.238;2022-08-03T09:48:33;25.40;30.40
49861;DHT22;35761;48.826;9.238;2022-08-03T09:51:03;25.50;28.40
49861;DHT22;35761;48.826;9.238;2022-08-03T09:53:53;25.70;29.10
49861;DHT22;35761;48.826;9.238;2022-08-03T09:56:40;26.10;28.50
49861;DHT22;35761;48.826;9.238;2022-08-03T09:59:21;26.20;28.10
49861;DHT22;35761;48.826;9.238;2022-08-03T10:01:52;26.40;27.50
49861;DHT22;35761;48.826;9.238;2022-08-03T10:04:21;26.50;27.90
49861;DHT22;35761;48.826;9.238;2022-08-03T10:07:02;26.40;27.90
49861;DHT22;35761;48.826;9.238;2022-08-03T10:09:32;26.60;26.80
49861;DHT22;35761;48.826;9.238;2022-08-03T10:12:08;26.50;27.70
49861;DHT22;35761;48.826;9.238;2022-08-03T10:14:40;26.40;29.00
49861;DHT22;35761;48.826;9.238;2022-08-03T10:17:11;26.30;27.00
49861;DHT22;35761;48.826;9.238;2022-08-03T10:19:40;26.50;26.40
49861;DHT22;35761;48.826;9.238;2022-08-03T10:22:12;26.50;27.40
49861;DHT22;35761;48.826;9.238;2022-08-03T10:24:48;26.50;26.90
49861;DHT22;35761;48.826;9.238;2022-08-03T10:27:22;26.60;25.60
49861;DHT22;35761;48.826;9.238;2022-08-03T10:29:54;26.90;23.70
49861;DHT22;35761;48.826;9.238;2022-08-03T10:32:27;26.90;24.00
49861;DHT22;35761;48.826;9.238;2022-08-03T10:35:03;27.10;23.40
49861;DHT22;35761;48.826;9.238;2022-08-03T10:37:52;27.60;22.30
49861;DHT22;35761;48.826;9.238;2022-08-03T10:40:27;27.80;21.40
49861;DHT22;35761;48.826;9.238;2022-08-03T10:43:19;27.70;22.50
49861;DHT22;35761;48.826;9.238;2022-08-03T10:45:50;27.70;22.40
49861;DHT22;35761;48.826;9.238;2022-08-03T10:48:19;27.70;22.40
49861;DHT22;35761;48.826;9.238;2022-08-03T10:55:39;27.90;21.50
49861;DHT22;35761;48.826;9.238;2022-08-03T10:58:50;28.00;21.30
49861;DHT22;35761;48.826;9.238;2022-08-03T11:01:52;28.20;21.60
49861;DHT22;35761;48.826;9.238;2022-08-03T11:04:27;28.30;21.30
49861;DHT22;35761;48.826;9.238;2022-08-03T11:07:18;28.30;21.00
49861;DHT22;35761;48.826;9.238;2022-08-03T11:09:49;28.30;21.30
49861;DHT22;35761;48.826;9.238;2022-08-03T11:12:21;28.30;20.80
49861;DHT22;35761;48.826;9.238;2022-08-03T11:14:59;28.40;20.80
49861;DHT22;35761;48.826;9.238;2022-08-03T11:17:31;28.40;20.60
49861;DHT22;35761;48.826;9.238;2022-08-03T11:20:12;28.50;20.50
49861;DHT22;35761;48.826;9.238;2022-08-03T11:22:48;28.50;20.00
49861;DHT22;35761;48.826;9.238;2022-08-03T11:25:20;28.60;20.80
49861;DHT22;35761;48.826;9.238;2022-08-03T11:28:24;28.80;20.50
49861;DHT22;35761;48.826;9.238;2022-08-03T11:30:54;28.90;20.30
49861;DHT22;35761;48.826;9.238;2022-08-03T11:33:30;28.80;21.60
49861;DHT22;35761;48.826;9.238;2022-08-03T11:36:00;28.90;19.90
49861;DHT22;35761;48.826;9.238;2022-08-03T11:38:29;29.00;20.00
49861;DHT22;35761;48.826;9.238;2022-08-03T11:40:57;29.00;20.50
49861;DHT22;35761;48.826;9.238;2022-08-03T11:43:46;29.10;20.00
49861;DHT22;35761;48.826;9.238;2022-08-03T11:46:14;29.20;20.00
49861;DHT22;35761;48.826;9.238;2022-08-03T11:49:03;29.20;19.30
49861;DHT22;35761;48.826;9.238;2022-08-03T11:51:37;29.10;19.90
49861;DHT22;35761;48.826;9.238;2022-08-03T11:54:06;29.00;20.90
49861;DHT22;35761;48.826;9.238;2022-08-03T11:56:46;29.00;21.60
49861;DHT22;35761;48.826;9.238;2022-08-03T11:59:16;29.00;20.40
49861;DHT22;35761;48.826;9.238;2022-08-03T12:01:49;29.00;20.00
49861;DHT22;35761;48.826;9.238;2022-08-03T12:04:19;29.00;21.10
49861;DHT22;35761;48.826;9.238;2022-08-03T12:07:00;28.90;21.30
49861;DHT22;35761;48.826;9.238;2022-08-03T12:09:29;29.00;20.70
49861;DHT22;35761;48.826;9.238;2022-08-03T12:12:00;29.00;20.90
49861;DHT22;35761;48.826;9.238;2022-08-03T12:14:28;29.10;20.30
49861;DHT22;35761;48.826;9.238;2022-08-03T12:17:17;29.20;19.60
49861;DHT22;35761;48.826;9.238;2022-08-03T12:19:47;29.70;18.80
49861;DHT22;35761;48.826;9.238;2022-08-03T12:22:17;30.10;18.90
49861;DHT22;35761;48.826;9.238;2022-08-03T12:24:58;30.30;18.50
49861;DHT22;35761;48.826;9.238;2022-08-03T12:27:27;30.70;18.40
49861;DHT22;35761;48.826;9.238;2022-08-03T12:29:57;30.90;17.40
49861;DHT22;35761;48.826;9.238;2022-08-03T12:32:28;31.20;17.70
49861;DHT22;35761;48.826;9.238;2022-08-03T12:34:58;31.30;17.50
49861;DHT22;35761;48.826;9.238;2022-08-03T12:37:30;31.60;17.60
49861;DHT22;35761;48.826;9.238;2022-08-03T12:40:00;31.70;17.70
49861;DHT22;35761;48.826;9.238;2022-08-03T12:42:38;31.80;17.80
49861;DHT22;35761;48.826;9.238;2022-08-03T12:45:22;31.90;17.80
49861;DHT22;35761;48.826;9.238;2022-08-03T12:47:54;32.00;18.30
49861;DHT22;35761;48.826;9.238;2022-08-03T12:50:25;32.20;18.20
49861;DHT22;35761;48.826;9.238;2022-08-03T12:52:58;32.30;17.70
49861;DHT22;35761;48.826;9.238;2022-08-03T12:55:28;32.40;17.20
49861;DHT22;35761;48.826;9.238;2022-08-03T12:58:31;32.50;17.30
49861;DHT22;35761;48.826;9.238;2022-08-03T13:01:02;32.60;17.00
49861;DHT22;35761;48.826;9.238;2022-08-03T13:03:41;32.60;17.30
49861;DHT22;35761;48.826;9.238;2022-08-03T13:06:22;32.90;16.50
49861;DHT22;35761;48.826;9.238;2022-08-03T13:09:03;32.90;16.90
49861;DHT22;35761;48.826;9.238;2022-08-03T13:11:33;33.10;16.80
49861;DHT22;35761;48.826;9.238;2022-08-03T13:14:21;33.30;16.80
49861;DHT22;35761;48.826;9.238;2022-08-03T13:16:50;33.50;16.00
49861;DHT22;35761;48.826;9.238;2022-08-03T13:19:18;33.70;16.30
49861;DHT22;35761;48.826;9.238;2022-08-03T13:21:48;33.80;15.20
49861;DHT22;35761;48.826;9.238;2022-08-03T13:24:31;33.90;15.90
49861;DHT22;35761;48.826;9.238;2022-08-03T13:27:00;34.00;15.80
49861;DHT22;35761;48.826;9.238;2022-08-03T13:29:51;34.00;15.30
49861;DHT22;35761;48.826;9.238;2022-08-03T13:32:19;34.10;15.30
49861;DHT22;35761;48.826;9.238;2022-08-03T13:34:49;34.30;15.30
49861;DHT22;35761;48.826;9.238;2022-08-03T13:37:19;34.40;14.90
49861;DHT22;35761;48.826;9.238;2022-08-03T13:39:48;34.70;14.60
49861;DHT22;35761;48.826;9.238;2022-08-03T13:42:28;34.80;14.90
49861;DHT22;35761;48.826;9.238;2022-08-03T13:44:57;35.10;14.10
49861;DHT22;35761;48.826;9.238;2022-08-03T13:47:26;35.20;14.60
49861;DHT22;35761;48.826;9.238;2022-08-03T13:49:56;35.40;14.10
49861;DHT22;35761;48.826;9.238;2022-08-03T13:52:32;35.50;13.90
49861;DHT22;35761;48.826;9.238;2022-08-03T13:55:02;35.50;14.50
49861;DHT22;35761;48.826;9.238;2022-08-03T13:57:31;35.70;14.40
49861;DHT22;35761;48.826;9.238;2022-08-03T14:00:20;35.80;13.60
49861;DHT22;35761;48.826;9.238;2022-08-03T14:02:56;36.10;13.40
49861;DHT22;35761;48.826;9.238;2022-08-03T14:05:41;36.20;13.70
49861;DHT22;35761;48.826;9.238;2022-08-03T14:08:11;36.30;13.80
49861;DHT22;35761;48.826;9.238;2022-08-03T14:10:42;36.60;14.00
49861;DHT22;35761;48.826;9.238;2022-08-03T14:13:12;36.70;13.50
49861;DHT22;35761;48.826;9.238;2022-08-03T14:15:44;36.80;13.50
49861;DHT22;35761;48.826;9.238;2022-08-03T14:18:17;37.10;13.60
49861;DHT22;35761;48.826;9.238;2022-08-03T14:20:56;37.30;12.80
49861;DHT22;35761;48.826;9.238;2022-08-03T14:23:34;37.50;11.80
49861;DHT22;35761;48.826;9.238;2022-08-03T14:26:04;37.60;12.70
49861;DHT22;35761;48.826;9.238;2022-08-03T14:28:34;37.60;12.10
49861;DHT22;35761;48.826;9.238;2022-08-03T14:31:03;37.80;13.00
49861;DHT22;35761;48.826;9.238;2022-08-03T14:33:51;37.90;12.70
49861;DHT22;35761;48.826;9.238;2022-08-03T14:36:20;38.10;12.90
49861;DHT22;35761;48.826;9.238;2022-08-03T14:38:50;38.20;12.40
49861;DHT22;35761;48.826;9.238;2022-08-03T14:41:18;38.40;12.00
49861;DHT22;35761;48.826;9.238;2022-08-03T14:43:47;38.50;10.40
49861;DHT22;35761;48.826;9.238;2022-08-03T14:46:28;38.40;11.00
49861;DHT22;35761;48.826;9.238;2022-08-03T14:48:57;38.30;11.50
49861;DHT22;35761;48.826;9.238;2022-08-03T14:51:45;38.50;11.40
49861;DHT22;35761;48.826;9.238;2022-08-03T14:54:20;38.60;10.90
49861;DHT22;35761;48.826;9.238;2022-08-03T14:56:49;38.80;11.60
49861;DHT22;35761;48.826;9.238;2022-08-03T14:59:18;39.10;11.20
49861;DHT22;35761;48.826;9.238;2022-08-03T15:01:47;39.30;10.80
49861;DHT22;35761;48.826;9.238;2022-08-03T15:04:29;39.50;11.30
49861;DHT22;35761;48.826;9.238;2022-08-03T15:06:58;39.70;11.20
49861;DHT22;35761;48.826;9.238;2022-08-03T15:09:28;39.70;10.10
49861;DHT22;35761;48.826;9.238;2022-08-03T15:11:57;39.90;10.30
49861;DHT22;35761;48.826;9.238;2022-08-03T15:14:26;39.90;9.60
49861;DHT22;35761;48.826;9.238;2022-08-03T15:17:00;40.00;9.80
49861;DHT22;35761;48.826;9.238;2022-08-03T15:19:29;40.10;9.90
49861;DHT22;35761;48.826;9.238;2022-08-03T15:22:17;40.20;10.20
49861;DHT22;35761;48.826;9.238;2022-08-03T15:25:02;40.30;9.70
49861;DHT22;35761;48.826;9.238;2022-08-03T15:27:51;40.40;9.30
49861;DHT22;35761;48.826;9.238;2022-08-03T15:30:30;40.50;9.30
49861;DHT22;35761;48.826;9.238;2022-08-03T15:33:02;40.60;9.60
49861;DHT22;35761;48.826;9.238;2022-08-03T15:35:30;40.70;9.50
49861;DHT22;35761;48.826;9.238;2022-08-03T15:37:59;40.80;9.00
49861;DHT22;35761;48.826;9.238;2022-08-03T15:40:34;40.80;8.90
49861;DHT22;35761;48.826;9.238;2022-08-03T15:43:03;41.00;9.90
49861;DHT22;35761;48.826;9.238;2022-08-03T15:45:31;41.00;8.80
49861;DHT22;35761;48.826;9.238;2022-08-03T15:48:03;40.90;8.70
49861;DHT22;35761;48.826;9.238;2022-08-03T15:50:32;41.00;10.10
49861;DHT22;35761;48.826;9.238;2022-08-03T15:53:00;41.20;9.10
49861;DHT22;35761;48.826;9.238;2022-08-03T15:55:29;41.30;8.90
49861;DHT22;35761;48.826;9.238;2022-08-03T15:57:59;41.40;9.10
49861;DHT22;35761;48.826;9.238;2022-08-03T16:00:47;41.50;8.60
49861;DHT22;35761;48.826;9.238;2022-08-03T16:03:15;41.60;9.10
49861;DHT22;35761;48.826;9.238;2022-08-03T16:05:44;41.80;9.00
49861;DHT22;35761;48.826;9.238;2022-08-03T16:08:12;41.80;7.90
49861;DHT22;35761;48.826;9.238;2022-08-03T16:10:41;41.80;8.00
49861;DHT22;35761;48.826;9.238;2022-08-03T16:13:11;41.90;7.90
49861;DHT22;35761;48.826;9.238;2022-08-03T16:15:39;41.90;7.80
49861;DHT22;35761;48.826;9.238;2022-08-03T16:18:08;41.90;7.20
49861;DHT22;35761;48.826;9.238;2022-08-03T16:20:36;41.90;7.50